sensor_id;sensor_type;location;lat;lon;timestamp;temperature;humidity
6988;DHT22;3534;49.960;8.018;2023-04-12T00:02:00;13.00;99.90
6988;DHT22;3534;49.960;8.018;2023-04-12T00:04:27;12.90;99.90
6988;DHT22;3534;49.960;8.018;2023-04-12T00:06:54;12.80;99.90
6988;DHT22;3534;49.960;8.018;2023-04-12T00:09:22;12.80;99.90
6988;DHT22;3534;49.960;8.018;2023-04-12T00:11:49;12.80;99.90
6988;DHT22;3534;49.960;8.018;2023-04-12T00:14:16;12.70;99.90
6988;DHT22;3534;49.960;8.018;2023-04-12T00:16:42;12.70;99.90
6988;DHT22;3534;49.960;8.018;2023-04-12T00:19:10;12.70;99.90
6988;DHT22;3534;49.960;8.018;2023-04-12T00:21:37;12.60;99.90
6988;DHT22;3534;49.960;8.018;2023-04-12T00:24:04;12.60;99.90
6988;DHT22;3534;49.960;8.018;2023-04-12T00:26:31;12.60;99.90
6988;DHT22;3534;49.960;8.018;2023-04-12T00:28:57;12.50;99.90
6988;DHT22;3534;49.960;8.018;2023-04-12T00:31:24;12.50;99.90
6988;DHT22;3534;49.960;8.018;2023-04-12T00:33:51;12.50;99.90
6988;DHT22;3534;49.960;8.018;2023-04-12T00:36:19;12.50;99.90
6988;DHT22;3534;49.960;8.018;2023-04-12T00:38:46;12.40;99.90
6988;DHT22;3534;49.960;8.018;2023-04-12T00:41:13;12.40;99.90
6988;DHT22;3534;49.960;8.018;2023-04-12T00:43:40;12.40;99.90
6988;DHT22;3534;49.960;8.018;2023-04-12T00:46:07;12.50;99.90
6988;DHT22;3534;49.960;8.018;2023-04-12T00:48:34;12.50;99.90
6988;DHT22;3534;49.960;8.018;2023-04-12T00:51:02;12.50;99.90
6988;DHT22;3534;49.960;8.018;2023-04-12T00:53:30;12.40;99.90
6988;DHT22;3534;49.960;8.018;2023-04-12T00:55:58;12.40;99.90
6988;DHT22;3534;49.960;8.018;2023-04-12T00:58:26;12.40;99.90
6988;DHT22;3534;49.960;8.018;2023-04-12T01:00:52;12.30;99.90
6988;DHT22;3534;49.960;8.018;2023-04-12T01:03:20;12.30;99.90
6988;DHT22;3534;49.960;8.018;2023-04-12T01:05:55;12.20;99.90
6988;DHT22;3534;49.960;8.018;2023-04-12T01:08:34;12.10;99.90
6988;DHT22;3534;49.960;8.018;2023-04-12T01:11:10;12.10;99.90
6988;DHT22;3534;49.960;8.018;2023-04-12T01:13:40;12.00;99.90
6988;DHT22;3534;49.960;8.018;2023-04-12T01:16:21;12.00;99.90
6988;DHT22;3534;49.960;8.018;2023-04-12T01:18:53;11.90;99.90
6988;DHT22;3534;49.960;8.018;2023-04-12T01:24:22;11.80;99.90
6988;DHT22;3534;49.960;8.018;2023-04-12T01:26:51;11.90;99.90
6988;DHT22;3534;49.960;8.018;2023-04-12T01:29:23;11.90;99.90
6988;DHT22;3534;49.960;8.018;2023-04-12T01:31:59;11.90;99.90
6988;DHT22;3534;49.960;8.018;2023-04-12T01:34:28;11.90;99.90
6988;DHT22;3534;49.960;8.018;2023-04-12T01:36:57;11.80;99.90
6988;DHT22;3534;49.960;8.018;2023-04-12T01:39:27;11.80;99.90
6988;DHT22;3534;49.960;8.018;2023-04-12T01:41:55;11.70;99.90
6988;DHT22;3534;49.960;8.018;2023-04-12T01:44:23;11.70;99.90
6988;DHT22;3534;49.960;8.018;2023-04-12T01:46:50;11.70;99.90
6988;DHT22;3534;49.960;8.018;2023-04-12T01:49:18;11.60;99.90
6988;DHT22;3534;49.960;8.018;2023-04-12T01:51:51;11.60;99.90
6988;DHT22;3534;49.960;8.018;2023-04-12T01:54:23;11.60;99.90
6988;DHT22;3534;49.960;8.018;2023-04-12T01:56:53;11.60;99.90
6988;DHT22;3534;49.960;8.018;2023-04-12T01:59:26;11.50;99.90
6988;DHT22;3534;49.960;8.018;2023-04-12T02:01:53;11.50;99.90
6988;DHT22;3534;49.960;8.018;2023-04-12T02:04:21;11.50;99.90
6988;DHT22;3534;49.960;8.018;2023-04-12T02:06:49;11.50;99.90
6988;DHT22;3534;49.960;8.018;2023-04-12T02:09:16;11.50;99.90
6988;DHT22;3534;49.960;8.018;2023-04-12T02:11:45;11.50;99.90
6988;DHT22;3534;49.960;8.018;2023-04-12T02:14:13;11.50;99.90
6988;DHT22;3534;49.960;8.018;2023-04-12T02:16:41;11.50;99.90
6988;DHT22;3534;49.960;8.018;2023-04-12T02:19:09;11.60;99.90
6988;DHT22;3534;49.960;8.018;2023-04-12T02:21:39;11.50;99.90
6988;DHT22;3534;49.960;8.018;2023-04-12T02:24:06;11.60;99.90
6988;DHT22;3534;49.960;8.018;2023-04-12T02:26:33;11.50;99.90
6988;DHT22;3534;49.960;8.018;2023-04-12T02:29:00;11.60;99.90
6988;DHT22;3534;49.960;8.018;2023-04-12T02:31:27;11.50;99.90
6988;DHT22;3534;49.960;8.018;2023-04-12T02:33:56;11.60;99.90
6988;DHT22;3534;49.960;8.018;2023-04-12T02:36:23;11.60;99.90
6988;DHT22;3534;49.960;8.018;2023-04-12T02:38:49;11.60;99.90
6988;DHT22;3534;49.960;8.018;2023-04-12T02:41:16;11.60;99.90
6988;DHT22;3534;49.960;8.018;2023-04-12T02:43:43;11.60;99.90
6988;DHT22;3534;49.960;8.018;2023-04-12T02:46:13;11.50;99.90
6988;DHT22;3534;49.960;8.018;2023-04-12T02:48:40;11.50;99.90
6988;DHT22;3534;49.960;8.018;2023-04-12T02:51:08;11.50;99.90
6988;DHT22;3534;49.960;8.018;2023-04-12T02:53:35;11.50;99.90
6988;DHT22;3534;49.960;8.018;2023-04-12T02:56:03;11.50;99.90
6988;DHT22;3534;49.960;8.018;2023-04-12T02:58:30;11.50;99.90
6988;DHT22;3534;49.960;8.018;2023-04-12T03:00:58;11.50;99.90
6988;DHT22;3534;49.960;8.018;2023-04-12T03:03:25;11.50;99.90
6988;DHT22;3534;49.960;8.018;2023-04-12T03:05:52;11.50;99.90
6988;DHT22;3534;49.960;8.018;2023-04-12T03:08:20;11.40;99.90
6988;DHT22;3534;49.960;8.018;2023-04-12T03:10:47;11.40;99.90
6988;DHT22;3534;49.960;8.018;2023-04-12T03:13:14;11.40;99.90
6988;DHT22;3534;49.960;8.018;2023-04-12T03:15:40;11.30;99.90
6988;DHT22;3534;49.960;8.018;2023-04-12T03:18:08;11.30;99.90
6988;DHT22;3534;49.960;8.018;2023-04-12T03:20:36;11.30;99.90
6988;DHT22;3534;49.960;8.018;2023-04-12T03:23:06;11.30;99.90
6988;DHT22;3534;49.960;8.018;2023-04-12T03:25:34;11.30;99.90
6988;DHT22;3534;49.960;8.018;2023-04-12T03:28:01;11.30;99.90
6988;DHT22;3534;49.960;8.018;2023-04-12T03:30:28;11.30;99.90
6988;DHT22;3534;49.960;8.018;2023-04-12T03:32:55;11.30;99.90
6988;DHT22;3534;49.960;8.018;2023-04-12T03:35:22;11.20;99.90
6988;DHT22;3534;49.960;8.018;2023-04-12T03:37:49;11.20;99.90
6988;DHT22;3534;49.960;8.018;2023-04-12T03:40:16;11.20;99.90
6988;DHT22;3534;49.960;8.018;2023-04-12T03:42:44;11.20;99.90
6988;DHT22;3534;49.960;8.018;2023-04-12T03:45:10;11.20;99.90
6988;DHT22;3534;49.960;8.018;2023-04-12T03:47:37;11.10;99.90
6988;DHT22;3534;49.960;8.018;2023-04-12T03:50:06;11.10;99.90
6988;DHT22;3534;49.960;8.018;2023-04-12T03:52:34;11.00;99.90
6988;DHT22;3534;49.960;8.018;2023-04-12T03:55:01;11.10;99.90
6988;DHT22;3534;49.960;8.018;2023-04-12T03:57:30;11.00;99.90
6988;DHT22;3534;49.960;8.018;2023-04-12T03:59:58;11.00;99.90
6988;DHT22;3534;49.960;8.018;2023-04-12T04:02:26;11.00;99.90
6988;DHT22;3534;49.960;8.018;2023-04-12T04:04:53;10.90;99.90
6988;DHT22;3534;49.960;8.018;2023-04-12T04:07:21;10.90;99.90
6988;DHT22;3534;49.960;8.018;2023-04-12T04:09:48;10.90;99.90
6988;DHT22;3534;49.960;8.018;2023-04-12T04:12:15;10.90;99.90
6988;DHT22;3534;49.960;8.018;2023-04-12T04:14:42;10.90;99.90
6988;DHT22;3534;49.960;8.018;2023-04-12T04:17:10;10.90;99.90
6988;DHT22;3534;49.960;8.018;2023-04-12T04:19:37;10.80;99.90
6988;DHT22;3534;49.960;8.018;2023-04-12T04:22:03;10.80;99.90
6988;DHT22;3534;49.960;8.018;2023-04-12T04:24:30;10.80;99.90
6988;DHT22;3534;49.960;8.018;2023-04-12T04:26:58;10.80;99.90
6988;DHT22;3534;49.960;8.018;2023-04-12T04:29:25;10.80;99.90
6988;DHT22;3534;49.960;8.018;2023-04-12T04:31:53;10.80;99.90
6988;DHT22;3534;49.960;8.018;2023-04-12T04:34:23;10.80;99.90
6988;DHT22;3534;49.960;8.018;2023-04-12T04:36:49;10.70;99.90
6988;DHT22;3534;49.960;8.018;2023-04-12T04:39:17;10.70;99.90
6988;DHT22;3534;49.960;8.018;2023-04-12T04:41:43;10.70;99.90
6988;DHT22;3534;49.960;8.018;2023-04-12T04:44:11;10.80;99.90
6988;DHT22;3534;49.960;8.018;2023-04-12T04:46:37;10.70;99.90
6988;DHT22;3534;49.960;8.018;2023-04-12T04:49:05;10.70;99.90
6988;DHT22;3534;49.960;8.018;2023-04-12T04:51:33;10.80;99.90
6988;DHT22;3534;49.960;8.018;2023-04-12T04:54:01;10.80;99.90
6988;DHT22;3534;49.960;8.018;2023-04-12T04:56:28;10.70;99.90
6988;DHT22;3534;49.960;8.018;2023-04-12T04:58:54;10.80;99.90
6988;DHT22;3534;49.960;8.018;2023-04-12T05:01:21;10.80;99.90
6988;DHT22;3534;49.960;8.018;2023-04-12T05:03:50;10.80;99.90
6988;DHT22;3534;49.960;8.018;2023-04-12T05:06:16;10.80;99.90
6988;DHT22;3534;49.960;8.018;2023-04-12T05:08:44;10.90;99.90
6988;DHT22;3534;49.960;8.018;2023-04-12T05:11:11;10.80;99.90
6988;DHT22;3534;49.960;8.018;2023-04-12T05:13:38;10.90;99.90
6988;DHT22;3534;49.960;8.018;2023-04-12T05:16:05;10.80;99.90
6988;DHT22;3534;49.960;8.018;2023-04-12T05:18:33;10.80;99.90
6988;DHT22;3534;49.960;8.018;2023-04-12T05:21:01;10.90;99.90
6988;DHT22;3534;49.960;8.018;2023-04-12T05:23:28;10.90;99.90
6988;DHT22;3534;49.960;8.018;2023-04-12T05:25:57;10.80;99.90
6988;DHT22;3534;49.960;8.018;2023-04-12T05:28:23;10.90;99.90
6988;DHT22;3534;49.960;8.018;2023-04-12T05:30:50;10.80;99.90
6988;DHT22;3534;49.960;8.018;2023-04-12T05:33:17;10.80;99.90
6988;DHT22;3534;49.960;8.018;2023-04-12T05:35:44;10.80;99.90
6988;DHT22;3534;49.960;8.018;2023-04-12T05:38:10;10.80;99.90
6988;DHT22;3534;49.960;8.018;2023-04-12T05:40:37;10.80;99.90
6988;DHT22;3534;49.960;8.018;2023-04-12T05:43:05;10.80;99.90
6988;DHT22;3534;49.960;8.018;2023-04-12T05:45:32;10.80;99.90
6988;DHT22;3534;49.960;8.018;2023-04-12T05:47:58;10.80;99.90
6988;DHT22;3534;49.960;8.018;2023-04-12T05:50:25;10.80;99.90
6988;DHT22;3534;49.960;8.018;2023-04-12T05:52:53;10.80;99.90
6988;DHT22;3534;49.960;8.018;2023-04-12T05:55:20;10.80;99.90
6988;DHT22;3534;49.960;8.018;2023-04-12T05:57:47;10.80;99.90
6988;DHT22;3534;49.960;8.018;2023-04-12T06:00:15;10.80;99.90
6988;DHT22;3534;49.960;8.018;2023-04-12T06:02:43;10.80;99.90
6988;DHT22;3534;49.960;8.018;2023-04-12T06:05:10;10.70;99.90
6988;DHT22;3534;49.960;8.018;2023-04-12T06:07:37;10.70;99.90
6988;DHT22;3534;49.960;8.018;2023-04-12T06:10:05;10.70;99.90
6988;DHT22;3534;49.960;8.018;2023-04-12T06:12:32;10.70;99.90
6988;DHT22;3534;49.960;8.018;2023-04-12T06:14:59;10.70;99.90
6988;DHT22;3534;49.960;8.018;2023-04-12T06:17:27;10.70;99.90
6988;DHT22;3534;49.960;8.018;2023-04-12T06:19:54;10.70;99.90
6988;DHT22;3534;49.960;8.018;2023-04-12T06:22:20;10.70;99.90
6988;DHT22;3534;49.960;8.018;2023-04-12T06:24:47;10.70;99.90
6988;DHT22;3534;49.960;8.018;2023-04-12T06:27:14;10.70;99.90
6988;DHT22;3534;49.960;8.018;2023-04-12T06:29:40;10.70;99.90
6988;DHT22;3534;49.960;8.018;2023-04-12T06:32:07;10.70;99.90
6988;DHT22;3534;49.960;8.018;2023-04-12T06:34:35;10.70;99.90
6988;DHT22;3534;49.960;8.018;2023-04-12T06:37:02;10.70;99.90
6988;DHT22;3534;49.960;8.018;2023-04-12T06:39:28;10.70;99.90
6988;DHT22;3534;49.960;8.018;2023-04-12T06:41:55;10.70;99.90
6988;DHT22;3534;49.960;8.018;2023-04-12T06:44:23;10.70;99.90
6988;DHT22;3534;49.960;8.018;2023-04-12T06:46:50;10.70;99.90
6988;DHT22;3534;49.960;8.018;2023-04-12T06:49:17;10.70;99.90
6988;DHT22;3534;49.960;8.018;2023-04-12T06:51:45;10.70;99.90
6988;DHT22;3534;49.960;8.018;2023-04-12T06:54:13;10.70;99.90
6988;DHT22;3534;49.960;8.018;2023-04-12T06:56:39;10.70;99.90
6988;DHT22;3534;49.960;8.018;2023-04-12T06:59:06;10.70;99.90
6988;DHT22;3534;49.960;8.018;2023-04-12T07:01:33;10.70;99.90
6988;DHT22;3534;49.960;8.018;2023-04-12T07:04:00;10.70;99.90
6988;DHT22;3534;49.960;8.018;2023-04-12T07:06:27;10.70;99.90
6988;DHT22;3534;49.960;8.018;2023-04-12T07:08:55;10.70;99.90
6988;DHT22;3534;49.960;8.018;2023-04-12T07:11:21;10.70;99.90
6988;DHT22;3534;49.960;8.018;2023-04-12T07:13:49;10.70;99.90
6988;DHT22;3534;49.960;8.018;2023-04-12T07:16:15;10.80;99.90
6988;DHT22;3534;49.960;8.018;2023-04-12T07:18:42;10.70;99.90
6988;DHT22;3534;49.960;8.018;2023-04-12T07:21:09;10.80;99.90
6988;DHT22;3534;49.960;8.018;2023-04-12T07:23:38;10.80;99.90
6988;DHT22;3534;49.960;8.018;2023-04-12T07:26:06;10.80;99.90
6988;DHT22;3534;49.960;8.018;2023-04-12T07:28:33;10.80;99.90
6988;DHT22;3534;49.960;8.018;2023-04-12T07:31:04;10.80;99.90
6988;DHT22;3534;49.960;8.018;2023-04-12T07:33:31;10.80;99.90
6988;DHT22;3534;49.960;8.018;2023-04-12T07:35:59;10.80;99.90
6988;DHT22;3534;49.960;8.018;2023-04-12T07:38:26;10.90;99.90
6988;DHT22;3534;49.960;8.018;2023-04-12T07:40:53;10.90;99.90
6988;DHT22;3534;49.960;8.018;2023-04-12T07:43:21;10.90;99.90
6988;DHT22;3534;49.960;8.018;2023-04-12T07:45:48;10.90;99.90
6988;DHT22;3534;49.960;8.018;2023-04-12T07:48:15;11.00;99.90
6988;DHT22;3534;49.960;8.018;2023-04-12T07:50:42;11.00;99.90
6988;DHT22;3534;49.960;8.018;2023-04-12T07:53:19;11.00;99.90
6988;DHT22;3534;49.960;8.018;2023-04-12T07:55:46;11.00;99.90
6988;DHT22;3534;49.960;8.018;2023-04-12T07:58:13;11.10;99.90
6988;DHT22;3534;49.960;8.018;2023-04-12T08:00:41;11.00;99.90
6988;DHT22;3534;49.960;8.018;2023-04-12T08:03:09;11.00;99.90
6988;DHT22;3534;49.960;8.018;2023-04-12T08:05:36;11.10;99.90
6988;DHT22;3534;49.960;8.018;2023-04-12T08:08:03;11.10;99.90
6988;DHT22;3534;49.960;8.018;2023-04-12T08:10:30;11.10;99.90
6988;DHT22;3534;49.960;8.018;2023-04-12T08:12:57;11.10;99.90
6988;DHT22;3534;49.960;8.018;2023-04-12T08:15:24;11.10;99.90
6988;DHT22;3534;49.960;8.018;2023-04-12T08:17:52;11.20;99.90
6988;DHT22;3534;49.960;8.018;2023-04-12T08:20:19;11.10;99.90
6988;DHT22;3534;49.960;8.018;2023-04-12T08:22:46;11.20;99.90
6988;DHT22;3534;49.960;8.018;2023-04-12T08:25:13;11.20;99.90
6988;DHT22;3534;49.960;8.018;2023-04-12T08:27:41;11.20;99.90
6988;DHT22;3534;49.960;8.018;2023-04-12T08:30:09;11.20;99.90
6988;DHT22;3534;49.960;8.018;2023-04-12T08:32:37;11.30;99.90
6988;DHT22;3534;49.960;8.018;2023-04-12T08:35:05;11.30;99.90
6988;DHT22;3534;49.960;8.018;2023-04-12T08:37:32;11.30;99.90
6988;DHT22;3534;49.960;8.018;2023-04-12T08:40:02;11.30;99.90
6988;DHT22;3534;49.960;8.018;2023-04-12T08:42:30;11.30;99.90
6988;DHT22;3534;49.960;8.018;2023-04-12T08:44:57;11.30;99.90
6988;DHT22;3534;49.960;8.018;2023-04-12T08:47:24;11.30;99.90
6988;DHT22;3534;49.960;8.018;2023-04-12T08:49:51;11.30;99.90
6988;DHT22;3534;49.960;8.018;2023-04-12T08:52:19;11.40;99.90
6988;DHT22;3534;49.960;8.018;2023-04-12T08:54:46;11.40;99.90
6988;DHT22;3534;49.960;8.018;2023-04-12T08:57:13;11.40;99.90
6988;DHT22;3534;49.960;8.018;2023-04-12T08:59:42;11.40;99.90
6988;DHT22;3534;49.960;8.018;2023-04-12T09:02:13;11.40;99.90
6988;DHT22;3534;49.960;8.018;2023-04-12T09:04:46;11.40;99.90
6988;DHT22;3534;49.960;8.018;2023-04-12T09:07:13;11.50;99.90
6988;DHT22;3534;49.960;8.018;2023-04-12T09:09:42;11.50;99.90
6988;DHT22;3534;49.960;8.018;2023-04-12T09:12:10;11.50;99.90
6988;DHT22;3534;49.960;8.018;2023-04-12T09:14:37;11.60;99.90
6988;DHT22;3534;49.960;8.018;2023-04-12T09:17:04;11.60;99.90
6988;DHT22;3534;49.960;8.018;2023-04-12T09:19:32;11.60;99.90
6988;DHT22;3534;49.960;8.018;2023-04-12T09:21:58;11.70;99.90
6988;DHT22;3534;49.960;8.018;2023-04-12T09:24:26;11.70;99.90
6988;DHT22;3534;49.960;8.018;2023-04-12T09:27:05;11.80;99.90
6988;DHT22;3534;49.960;8.018;2023-04-12T09:29:32;11.80;99.90
6988;DHT22;3534;49.960;8.018;2023-04-12T09:32:00;11.90;99.90
6988;DHT22;3534;49.960;8.018;2023-04-12T09:34:27;11.90;99.90
6988;DHT22;3534;49.960;8.018;2023-04-12T09:36:54;11.90;99.90
6988;DHT22;3534;49.960;8.018;2023-04-12T09:39:29;12.00;99.90
6988;DHT22;3534;49.960;8.018;2023-04-12T09:42:05;12.00;99.90
6988;DHT22;3534;49.960;8.018;2023-04-12T09:44:31;12.00;99.90
6988;DHT22;3534;49.960;8.018;2023-04-12T09:46:59;12.10;99.90
6988;DHT22;3534;49.960;8.018;2023-04-12T09:49:37;12.10;99.90
6988;DHT22;3534;49.960;8.018;2023-04-12T09:52:05;12.20;99.90
6988;DHT22;3534;49.960;8.018;2023-04-12T09:54:37;12.20;99.90
6988;DHT22;3534;49.960;8.018;2023-04-12T09:57:07;12.30;99.90
6988;DHT22;3534;49.960;8.018;2023-04-12T09:59:36;12.30;99.90
6988;DHT22;3534;49.960;8.018;2023-04-12T10:02:06;12.40;99.90
6988;DHT22;3534;49.960;8.018;2023-04-12T10:04:35;12.40;99.90
6988;DHT22;3534;49.960;8.018;2023-04-12T10:07:03;12.40;99.90
6988;DHT22;3534;49.960;8.018;2023-04-12T10:09:31;12.50;99.90
6988;DHT22;3534;49.960;8.018;2023-04-12T10:11:59;12.50;99.90
6988;DHT22;3534;49.960;8.018;2023-04-12T10:14:29;12.50;99.90
6988;DHT22;3534;49.960;8.018;2023-04-12T10:16:57;12.50;99.90
6988;DHT22;3534;49.960;8.018;2023-04-12T10:19:25;12.50;99.90
6988;DHT22;3534;49.960;8.018;2023-04-12T10:21:53;12.50;99.90
6988;DHT22;3534;49.960;8.018;2023-04-12T10:24:20;12.50;99.90
6988;DHT22;3534;49.960;8.018;2023-04-12T10:26:48;12.50;99.90
6988;DHT22;3534;49.960;8.018;2023-04-12T10:29:23;12.60;99.90
6988;DHT22;3534;49.960;8.018;2023-04-12T10:31:52;12.60;99.90
6988;DHT22;3534;49.960;8.018;2023-04-12T10:34:23;12.60;99.90
6988;DHT22;3534;49.960;8.018;2023-04-12T10:36:52;12.60;99.90
6988;DHT22;3534;49.960;8.018;2023-04-12T10:39:34;12.70;99.90
6988;DHT22;3534;49.960;8.018;2023-04-12T10:42:21;12.70;99.90
6988;DHT22;3534;49.960;8.018;2023-04-12T10:44:49;12.60;99.90
6988;DHT22;3534;49.960;8.018;2023-04-12T10:50:22;12.60;99.90
6988;DHT22;3534;49.960;8.018;2023-04-12T10:53:20;12.60;99.90
6988;DHT22;3534;49.960;8.018;2023-04-12T10:55:47;12.60;99.90
6988;DHT22;3534;49.960;8.018;2023-04-12T10:58:55;12.70;99.90
6988;DHT22;3534;49.960;8.018;2023-04-12T11:01:22;12.70;99.90
6988;DHT22;3534;49.960;8.018;2023-04-12T11:04:15;12.70;99.90
6988;DHT22;3534;49.960;8.018;2023-04-12T11:06:47;12.70;99.90
6988;DHT22;3534;49.960;8.018;2023-04-12T11:09:19;12.70;99.90
6988;DHT22;3534;49.960;8.018;2023-04-12T11:11:46;12.70;99.90
6988;DHT22;3534;49.960;8.018;2023-04-12T11:14:14;12.80;99.90
6988;DHT22;3534;49.960;8.018;2023-04-12T11:19:48;12.90;99.90
6988;DHT22;3534;49.960;8.018;2023-04-12T11:22:17;13.00;99.90
6988;DHT22;3534;49.960;8.018;2023-04-12T11:24:45;13.00;99.90
6988;DHT22;3534;49.960;8.018;2023-04-12T11:27:13;13.10;99.90
6988;DHT22;3534;49.960;8.018;2023-04-12T11:29:41;13.20;99.90
6988;DHT22;3534;49.960;8.018;2023-04-12T11:32:11;13.30;99.90
6988;DHT22;3534;49.960;8.018;2023-04-12T11:34:39;13.30;99.90
6988;DHT22;3534;49.960;8.018;2023-04-12T11:37:07;13.40;99.90
6988;DHT22;3534;49.960;8.018;2023-04-12T11:39:38;13.40;99.90
6988;DHT22;3534;49.960;8.018;2023-04-12T11:42:05;13.40;99.90
6988;DHT22;3534;49.960;8.018;2023-04-12T11:44:33;13.40;99.90
6988;DHT22;3534;49.960;8.018;2023-04-12T11:47:01;13.40;99.90
6988;DHT22;3534;49.960;8.018;2023-04-12T11:49:27;13.40;99.90
6988;DHT22;3534;49.960;8.018;2023-04-12T11:52:01;13.50;99.90
6988;DHT22;3534;49.960;8.018;2023-04-12T11:54:29;13.50;99.90
6988;DHT22;3534;49.960;8.018;2023-04-12T11:56:57;13.50;99.90
6988;DHT22;3534;49.960;8.018;2023-04-12T11:59:30;13.60;99.90
6988;DHT22;3534;49.960;8.018;2023-04-12T12:01:58;13.60;99.90
6988;DHT22;3534;49.960;8.018;2023-04-12T12:04:25;13.60;99.90
6988;DHT22;3534;49.960;8.018;2023-04-12T12:06:52;13.60;99.90
6988;DHT22;3534;49.960;8.018;2023-04-12T12:09:19;13.70;99.90
6988;DHT22;3534;49.960;8.018;2023-04-12T12:11:46;13.80;99.90
6988;DHT22;3534;49.960;8.018;2023-04-12T12:14:18;13.90;99.90
6988;DHT22;3534;49.960;8.018;2023-04-12T12:16:51;14.00;99.90
6988;DHT22;3534;49.960;8.018;2023-04-12T12:19:26;14.00;99.90
6988;DHT22;3534;49.960;8.018;2023-04-12T12:21:53;14.10;99.90
6988;DHT22;3534;49.960;8.018;2023-04-12T12:24:21;14.20;99.90
6988;DHT22;3534;49.960;8.018;2023-04-12T12:26:48;14.20;99.90
6988;DHT22;3534;49.960;8.018;2023-04-12T12:29:17;14.20;99.90
6988;DHT22;3534;49.960;8.018;2023-04-12T12:31:47;14.20;99.90
6988;DHT22;3534;49.960;8.018;2023-04-12T12:34:15;14.30;99.90
6988;DHT22;3534;49.960;8.018;2023-04-12T12:36:44;14.20;99.90
6988;DHT22;3534;49.960;8.018;2023-04-12T12:39:19;14.20;99.90
6988;DHT22;3534;49.960;8.018;2023-04-12T12:41:52;14.20;99.90
6988;DHT22;3534;49.960;8.018;2023-04-12T12:44:21;14.30;99.90
6988;DHT22;3534;49.960;8.018;2023-04-12T12:46:48;14.30;99.90
6988;DHT22;3534;49.960;8.018;2023-04-12T12:49:15;14.30;99.90
6988;DHT22;3534;49.960;8.018;2023-04-12T12:51:42;14.40;99.90
6988;DHT22;3534;49.960;8.018;2023-04-12T12:54:09;14.40;99.90
6988;DHT22;3534;49.960;8.018;2023-04-12T12:56:35;14.50;99.90
6988;DHT22;3534;49.960;8.018;2023-04-12T12:59:02;14.40;99.90
6988;DHT22;3534;49.960;8.018;2023-04-12T13:01:30;14.40;99.90
6988;DHT22;3534;49.960;8.018;2023-04-12T13:03:57;14.40;99.90
6988;DHT22;3534;49.960;8.018;2023-04-12T13:06:23;14.40;99.90
6988;DHT22;3534;49.960;8.018;2023-04-12T13:08:52;14.40;99.90
6988;DHT22;3534;49.960;8.018;2023-04-12T13:11:20;14.40;99.90
6988;DHT22;3534;49.960;8.018;2023-04-12T13:13:47;14.40;99.90
6988;DHT22;3534;49.960;8.018;2023-04-12T13:16:14;14.30;99.90
6988;DHT22;3534;49.960;8.018;2023-04-12T13:18:42;14.30;99.90
6988;DHT22;3534;49.960;8.018;2023-04-12T13:21:09;14.30;99.90
6988;DHT22;3534;49.960;8.018;2023-04-12T13:23:36;14.30;99.90
6988;DHT22;3534;49.960;8.018;2023-04-12T13:26:03;14.30;99.90
6988;DHT22;3534;49.960;8.018;2023-04-12T13:28:30;14.30;99.90
6988;DHT22;3534;49.960;8.018;2023-04-12T13:30:56;14.20;99.90
6988;DHT22;3534;49.960;8.018;2023-04-12T13:33:23;14.20;99.90
6988;DHT22;3534;49.960;8.018;2023-04-12T13:35:51;14.20;99.90
6988;DHT22;3534;49.960;8.018;2023-04-12T13:38:18;14.20;99.90
6988;DHT22;3534;49.960;8.018;2023-04-12T13:40:45;14.20;99.90
6988;DHT22;3534;49.960;8.018;2023-04-12T13:43:12;14.20;99.90
6988;DHT22;3534;49.960;8.018;2023-04-12T13:45:38;14.20;99.90
6988;DHT22;3534;49.960;8.018;2023-04-12T13:48:05;14.20;99.90
6988;DHT22;3534;49.960;8.018;2023-04-12T13:50:32;14.30;99.90
6988;DHT22;3534;49.960;8.018;2023-04-12T13:53:00;14.50;99.90
6988;DHT22;3534;49.960;8.018;2023-04-12T13:55:27;14.50;99.90
6988;DHT22;3534;49.960;8.018;2023-04-12T13:57:53;14.50;99.90
6988;DHT22;3534;49.960;8.018;2023-04-12T14:00:21;14.50;99.90
6988;DHT22;3534;49.960;8.018;2023-04-12T14:02:48;14.40;99.90
6988;DHT22;3534;49.960;8.018;2023-04-12T14:05:14;14.40;99.90
6988;DHT22;3534;49.960;8.018;2023-04-12T14:07:41;14.30;99.90
6988;DHT22;3534;49.960;8.018;2023-04-12T14:10:10;14.30;99.90
6988;DHT22;3534;49.960;8.018;2023-04-12T14:12:36;14.20;99.90
6988;DHT22;3534;49.960;8.018;2023-04-12T14:15:04;14.20;99.90
6988;DHT22;3534;49.960;8.018;2023-04-12T14:17:31;14.20;99.90
6988;DHT22;3534;49.960;8.018;2023-04-12T14:19:58;14.10;99.90
6988;DHT22;3534;49.960;8.018;2023-04-12T14:22:25;14.10;99.90
6988;DHT22;3534;49.960;8.018;2023-04-12T14:24:51;14.10;99.90
6988;DHT22;3534;49.960;8.018;2023-04-12T14:27:19;14.00;99.90
6988;DHT22;3534;49.960;8.018;2023-04-12T14:29:46;14.00;99.90
6988;DHT22;3534;49.960;8.018;2023-04-12T14:32:14;14.00;99.90
6988;DHT22;3534;49.960;8.018;2023-04-12T14:34:40;14.10;99.90
6988;DHT22;3534;49.960;8.018;2023-04-12T14:37:08;14.10;99.90
6988;DHT22;3534;49.960;8.018;2023-04-12T14:39:35;14.20;99.90
6988;DHT22;3534;49.960;8.018;2023-04-12T14:42:02;14.20;99.90
6988;DHT22;3534;49.960;8.018;2023-04-12T14:44:30;14.30;99.90
6988;DHT22;3534;49.960;8.018;2023-04-12T14:46:57;14.30;99.90
6988;DHT22;3534;49.960;8.018;2023-04-12T14:49:24;14.30;99.90
6988;DHT22;3534;49.960;8.018;2023-04-12T14:51:51;14.30;99.90
6988;DHT22;3534;49.960;8.018;2023-04-12T14:54:19;14.30;99.90
6988;DHT22;3534;49.960;8.018;2023-04-12T14:56:46;14.20;99.90
6988;DHT22;3534;49.960;8.018;2023-04-12T14:59:15;14.10;99.90
6988;DHT22;3534;49.960;8.018;2023-04-12T15:01:43;14.00;99.90
6988;DHT22;3534;49.960;8.018;2023-04-12T15:04:10;14.00;99.90
6988;DHT22;3534;49.960;8.018;2023-04-12T15:06:37;14.40;99.90
6988;DHT22;3534;49.960;8.018;2023-04-12T15:09:07;14.90;99.90
6988;DHT22;3534;49.960;8.018;2023-04-12T15:11:34;15.50;99.90
6988;DHT22;3534;49.960;8.018;2023-04-12T15:14:01;16.00;99.90
6988;DHT22;3534;49.960;8.018;2023-04-12T15:16:30;16.40;99.90
6988;DHT22;3534;49.960;8.018;2023-04-12T15:19:00;16.80;99.90
6988;DHT22;3534;49.960;8.018;2023-04-12T15:21:27;17.10;99.90
6988;DHT22;3534;49.960;8.018;2023-04-12T15:23:54;17.30;99.90
6988;DHT22;3534;49.960;8.018;2023-04-12T15:26:21;17.50;99.90
6988;DHT22;3534;49.960;8.018;2023-04-12T15:28:48;17.70;99.90
6988;DHT22;3534;49.960;8.018;2023-04-12T15:31:15;17.90;99.90
6988;DHT22;3534;49.960;8.018;2023-04-12T15:33:41;18.10;99.90
6988;DHT22;3534;49.960;8.018;2023-04-12T15:36:10;18.20;99.90
6988;DHT22;3534;49.960;8.018;2023-04-12T15:38:39;18.30;99.90
6988;DHT22;3534;49.960;8.018;2023-04-12T15:41:07;18.40;99.90
6988;DHT22;3534;49.960;8.018;2023-04-12T15:43:33;18.50;99.90
6988;DHT22;3534;49.960;8.018;2023-04-12T15:46:00;18.60;99.90
6988;DHT22;3534;49.960;8.018;2023-04-12T15:48:27;18.80;99.90
6988;DHT22;3534;49.960;8.018;2023-04-12T15:50:54;19.00;99.90
6988;DHT22;3534;49.960;8.018;2023-04-12T15:53:24;19.10;99.90
6988;DHT22;3534;49.960;8.018;2023-04-12T15:55:50;19.20;99.90
6988;DHT22;3534;49.960;8.018;2023-04-12T15:58:19;19.20;99.90
6988;DHT22;3534;49.960;8.018;2023-04-12T16:00:47;19.10;99.90
6988;DHT22;3534;49.960;8.018;2023-04-12T16:03:14;18.80;99.90
6988;DHT22;3534;49.960;8.018;2023-04-12T16:05:44;18.50;99.90
6988;DHT22;3534;49.960;8.018;2023-04-12T16:08:11;18.20;99.90
6988;DHT22;3534;49.960;8.018;2023-04-12T16:10:39;18.00;99.90
6988;DHT22;3534;49.960;8.018;2023-04-12T16:13:06;18.00;99.90
6988;DHT22;3534;49.960;8.018;2023-04-12T16:15:34;18.00;99.90
6988;DHT22;3534;49.960;8.018;2023-04-12T16:18:02;17.80;99.90